TimeCDT,TemperatureF,Dew PointF,Humidity,Sea Level PressureIn,VisibilityMPH,Wind Direction,Wind SpeedMPH,Gust SpeedMPH,PrecipitationIn,Events,Conditions,WindDirDegrees,DateUTC
12:53 AM,28.9,23.0,78,30.38,10.0,North,16.1,-,0.00,,Overcast,10,2013-04-23 05:53:00
1:24 AM,28.4,24.8,86,30.31,1.8,North,19.6,25.3,0.00,Snow,Light Snow,360,2013-04-23 06:24:00
1:39 AM,28.4,24.8,86,30.30,3.0,North,16.1,26.5,0.00,Snow,Light Snow,360,2013-04-23 06:39:00
1:53 AM,28.9,24.1,82,30.37,3.0,North,16.1,-,0.00,Snow,Light Snow,10,2013-04-23 06:53:00
2:27 AM,28.4,23.0,80,30.30,9.0,North,18.4,-,0.00,,Overcast,10,2013-04-23 07:27:00
2:53 AM,28.9,23.0,78,30.35,6.0,North,15.0,-,0.00,Snow,Light Snow,10,2013-04-23 07:53:00
3:53 AM,28.0,19.9,72,30.32,6.0,North,19.6,28.8,0.00,,Haze,10,2013-04-23 08:53:00
4:53 AM,26.6,19.4,74,30.28,10.0,NNE,18.4,25.3,N/A,,Overcast,20,2013-04-23 09:53:00
5:53 AM,27.0,19.0,72,30.35,10.0,North,17.3,-,N/A,,Scattered Clouds,10,2013-04-23 10:53:00
6:53 AM,26.1,19.0,75,30.35,10.0,North,16.1,-,N/A,,Partly Cloudy,10,2013-04-23 11:53:00
7:53 AM,27.0,19.9,75,30.37,10.0,NNW,10.4,-,N/A,,Mostly Cloudy,340,2013-04-23 12:53:00
8:53 AM,28.0,19.0,69,30.37,10.0,North,15.0,-,N/A,,Overcast,350,2013-04-23 13:53:00
9:53 AM,28.9,19.0,67,30.36,10.0,North,13.8,-,N/A,,Overcast,360,2013-04-23 14:53:00
10:53 AM,30.9,18.0,59,30.35,10.0,North,17.3,-,N/A,,Overcast,360,2013-04-23 15:53:00
11:53 AM,33.1,19.0,56,30.34,10.0,North,13.8,-,N/A,,Overcast,10,2013-04-23 16:53:00
12:53 PM,35.1,18.0,50,30.33,10.0,North,17.3,-,N/A,,Overcast,350,2013-04-23 17:53:00
1:53 PM,35.6,17.6,48,30.24,10.0,North,11.5,20.7,N/A,,Overcast,350,2013-04-23 18:53:00
2:53 PM,37.9,19.0,47,30.29,10.0,NNW,9.2,19.6,N/A,,Overcast,330,2013-04-23 19:53:00
3:53 PM,39.9,18.0,41,30.25,10.0,NNW,10.4,-,N/A,,Overcast,340,2013-04-23 20:53:00
4:53 PM,42.1,17.1,37,30.23,10.0,NNW,11.5,-,N/A,,Mostly Cloudy,340,2013-04-23 21:53:00
5:53 PM,43.0,16.0,34,30.21,10.0,North,12.7,-,N/A,,Overcast,350,2013-04-23 22:53:00
6:53 PM,42.1,16.0,35,30.22,10.0,NNE,10.4,-,N/A,,Overcast,30,2013-04-23 23:53:00
7:53 PM,39.0,19.0,45,30.22,10.0,NE,8.1,-,N/A,,Mostly Cloudy,50,2013-04-24 00:53:00
8:53 PM,33.1,19.9,59,30.24,10.0,NNE,8.1,-,N/A,,Partly Cloudy,30,2013-04-24 01:53:00
9:53 PM,32.0,19.9,61,30.27,10.0,East,4.6,-,N/A,,Clear,80,2013-04-24 02:53:00
10:53 PM,32.0,19.9,61,30.29,10.0,Calm,Calm,-,N/A,,Clear,0,2013-04-24 03:53:00
11:53 PM,30.0,19.0,64,30.29,10.0,South,3.5,-,N/A,,Clear,190,2013-04-24 04:53:00